Terminal Aerodrome Forecast
Issued by NWS

Home | Current Version | Previous Version | Graphics & Text | Print | Product List | Glossary On
Versions: 1 2 3 4 5 6 7 8 9 10 11 12 13 14 15 16 17
311
FTUS42 KMHX 181121
TAFISO
TAF
KISO 181121Z 1812/1912 24010KT P6SM VCSH OVC080
     FM181500 28009KT P6SM VCSH BKN020
     FM182100 32012KT P6SM FEW250
      AMD LTD TO CLD VIS AND WIND=

USA.gov is the U.S. government's official web portal to all federal, state and local government web resources and services.